sensor_id;sensor_type;location;lat;lon;timestamp;pressure;altitude;pressure_sealevel;temperature;humidity
65897;BME280;52677;50.898;10.854;2023-02-02T00:00:00;98463.69;;;1.95;100.00
65897;BME280;52677;50.898;10.854;2023-02-02T00:02:01;98474.59;;;1.95;100.00
65897;BME280;52677;50.898;10.854;2023-02-02T00:04:02;98469.13;;;1.95;100.00
65897;BME280;52677;50.898;10.854;2023-02-02T00:06:02;98470.75;;;1.87;100.00
65897;BME280;52677;50.898;10.854;2023-02-02T00:08:03;98464.63;;;1.82;100.00
65897;BME280;52677;50.898;10.854;2023-02-02T00:10:04;98465.47;;;1.82;100.00
65897;BME280;52677;50.898;10.854;2023-02-02T00:12:04;98467.06;;;1.75;100.00
65897;BME280;52677;50.898;10.854;2023-02-02T00:14:05;98464.16;;;1.80;100.00
65897;BME280;52677;50.898;10.854;2023-02-02T00:18:25;98474.44;;;1.83;100.00
65897;BME280;52677;50.898;10.854;2023-02-02T00:20:25;98471.22;;;1.81;100.00
65897;BME280;52677;50.898;10.854;2023-02-02T00:22:26;98478.28;;;1.82;100.00
65897;BME280;52677;50.898;10.854;2023-02-02T00:24:27;98471.88;;;1.86;100.00
65897;BME280;52677;50.898;10.854;2023-02-02T00:26:27;98483.91;;;1.94;100.00
65897;BME280;52677;50.898;10.854;2023-02-02T00:28:28;98487.75;;;1.93;100.00
65897;BME280;52677;50.898;10.854;2023-02-02T00:30:28;98478.94;;;1.87;100.00
65897;BME280;52677;50.898;10.854;2023-02-02T00:32:28;98482.31;;;1.93;100.00
65897;BME280;52677;50.898;10.854;2023-02-02T00:34:29;98489.03;;;1.87;100.00
65897;BME280;52677;50.898;10.854;2023-02-02T00:36:29;98486.97;;;1.92;100.00
65897;BME280;52677;50.898;10.854;2023-02-02T00:38:30;98493.22;;;1.93;100.00
65897;BME280;52677;50.898;10.854;2023-02-02T00:40:30;98493.38;;;1.96;100.00
65897;BME280;52677;50.898;10.854;2023-02-02T00:42:31;98485.03;;;1.93;100.00
65897;BME280;52677;50.898;10.854;2023-02-02T00:44:31;98501.41;;;1.93;100.00
65897;BME280;52677;50.898;10.854;2023-02-02T00:46:50;98491.63;;;1.92;100.00
65897;BME280;52677;50.898;10.854;2023-02-02T00:48:50;98488.25;;;1.95;100.00
65897;BME280;52677;50.898;10.854;2023-02-02T00:50:52;98487.91;;;1.96;100.00
65897;BME280;52677;50.898;10.854;2023-02-02T00:52:52;98490.63;;;1.96;100.00
65897;BME280;52677;50.898;10.854;2023-02-02T00:54:52;98494.50;;;2.04;100.00
65897;BME280;52677;50.898;10.854;2023-02-02T00:56:53;98495.94;;;2.10;100.00
65897;BME280;52677;50.898;10.854;2023-02-02T00:58:53;98489.38;;;2.03;100.00
65897;BME280;52677;50.898;10.854;2023-02-02T01:00:53;98495.78;;;1.98;100.00
65897;BME280;52677;50.898;10.854;2023-02-02T01:02:54;98496.28;;;1.91;100.00
65897;BME280;52677;50.898;10.854;2023-02-02T01:04:55;98485.38;;;1.91;100.00
65897;BME280;52677;50.898;10.854;2023-02-02T01:06:55;98499.16;;;1.95;100.00
65897;BME280;52677;50.898;10.854;2023-02-02T01:08:55;98496.28;;;2.00;100.00
65897;BME280;52677;50.898;10.854;2023-02-02T01:10:58;98502.84;;;2.08;100.00
65897;BME280;52677;50.898;10.854;2023-02-02T01:12:58;98499.94;;;2.04;100.00
65897;BME280;52677;50.898;10.854;2023-02-02T01:15:00;98502.69;;;2.04;100.00
65897;BME280;52677;50.898;10.854;2023-02-02T01:17:00;98513.28;;;2.06;100.00
65897;BME280;52677;50.898;10.854;2023-02-02T01:19:00;98502.22;;;2.02;100.00
65897;BME280;52677;50.898;10.854;2023-02-02T01:21:07;98511.34;;;2.06;100.00
65897;BME280;52677;50.898;10.854;2023-02-02T01:23:07;98514.06;;;2.06;100.00
65897;BME280;52677;50.898;10.854;2023-02-02T01:25:09;98509.59;;;2.02;100.00
65897;BME280;52677;50.898;10.854;2023-02-02T01:27:09;98516.97;;;2.10;100.00
65897;BME280;52677;50.898;10.854;2023-02-02T01:29:10;98525.31;;;2.13;100.00
65897;BME280;52677;50.898;10.854;2023-02-02T01:31:13;98520.50;;;2.10;100.00
65897;BME280;52677;50.898;10.854;2023-02-02T01:33:15;98519.84;;;2.05;100.00
65897;BME280;52677;50.898;10.854;2023-02-02T01:35:15;98514.06;;;2.06;100.00
65897;BME280;52677;50.898;10.854;2023-02-02T01:37:16;98512.47;;;2.05;100.00
65897;BME280;52677;50.898;10.854;2023-02-02T01:39:16;98513.59;;;2.13;100.00
65897;BME280;52677;50.898;10.854;2023-02-02T01:41:21;98509.91;;;2.09;100.00
65897;BME280;52677;50.898;10.854;2023-02-02T01:45:42;98509.25;;;2.03;100.00
65897;BME280;52677;50.898;10.854;2023-02-02T01:47:46;98513.28;;;2.06;100.00
65897;BME280;52677;50.898;10.854;2023-02-02T01:49:48;98518.44;;;2.07;100.00
65897;BME280;52677;50.898;10.854;2023-02-02T01:51:51;98509.91;;;2.00;100.00
65897;BME280;52677;50.898;10.854;2023-02-02T01:53:53;98517.44;;;1.94;100.00
65897;BME280;52677;50.898;10.854;2023-02-02T01:55:55;98520.31;;;1.89;100.00
65897;BME280;52677;50.898;10.854;2023-02-02T01:58:20;98524.03;;;1.85;100.00
65897;BME280;52677;50.898;10.854;2023-02-02T02:00:22;98528.69;;;1.93;100.00
65897;BME280;52677;50.898;10.854;2023-02-02T02:02:24;98530.28;;;1.94;100.00
65897;BME280;52677;50.898;10.854;2023-02-02T02:04:28;98529.81;;;1.92;100.00
65897;BME280;52677;50.898;10.854;2023-02-02T02:06:29;98532.38;;;1.97;100.00
65897;BME280;52677;50.898;10.854;2023-02-02T02:08:36;98537.50;;;1.98;100.00
65897;BME280;52677;50.898;10.854;2023-02-02T02:10:38;98542.81;;;1.95;100.00
65897;BME280;52677;50.898;10.854;2023-02-02T02:12:38;98537.19;;;1.91;100.00
65897;BME280;52677;50.898;10.854;2023-02-02T02:14:39;98533.34;;;1.92;100.00
65897;BME280;52677;50.898;10.854;2023-02-02T02:18:14;98535.44;;;1.95;100.00
65897;BME280;52677;50.898;10.854;2023-02-02T02:22:13;98544.91;;;2.07;100.00
65897;BME280;52677;50.898;10.854;2023-02-02T02:29:55;98551.00;;;1.86;100.00
65897;BME280;52677;50.898;10.854;2023-02-02T02:34:35;98548.59;;;1.85;100.00
65897;BME280;52677;50.898;10.854;2023-02-02T02:36:59;98551.13;;;1.90;100.00
65897;BME280;52677;50.898;10.854;2023-02-02T02:41:16;98554.66;;;1.82;100.00
65897;BME280;52677;50.898;10.854;2023-02-02T02:43:28;98546.78;;;1.80;100.00
65897;BME280;52677;50.898;10.854;2023-02-02T02:45:31;98561.09;;;1.77;100.00
65897;BME280;52677;50.898;10.854;2023-02-02T02:47:33;98553.56;;;1.74;100.00
65897;BME280;52677;50.898;10.854;2023-02-02T02:49:41;98566.22;;;1.79;100.00
65897;BME280;52677;50.898;10.854;2023-02-02T02:53:45;98553.06;;;1.81;100.00
65897;BME280;52677;50.898;10.854;2023-02-02T02:55:57;98558.81;;;1.71;100.00
65897;BME280;52677;50.898;10.854;2023-02-02T02:58:15;98557.06;;;1.66;100.00
65897;BME280;52677;50.898;10.854;2023-02-02T03:05:10;98551.09;;;1.64;100.00
65897;BME280;52677;50.898;10.854;2023-02-02T03:07:29;98556.38;;;1.52;100.00
65897;BME280;52677;50.898;10.854;2023-02-02T03:09:36;98563.09;;;1.46;100.00
65897;BME280;52677;50.898;10.854;2023-02-02T03:11:39;98557.47;;;1.42;100.00
65897;BME280;52677;50.898;10.854;2023-02-02T03:13:40;98560.25;;;1.59;100.00
65897;BME280;52677;50.898;10.854;2023-02-02T03:15:45;98561.06;;;1.68;100.00
65897;BME280;52677;50.898;10.854;2023-02-02T03:17:47;98549.34;;;1.68;100.00
65897;BME280;52677;50.898;10.854;2023-02-02T03:19:48;98552.41;;;1.66;100.00
65897;BME280;52677;50.898;10.854;2023-02-02T03:21:49;98549.34;;;1.68;100.00
65897;BME280;52677;50.898;10.854;2023-02-02T03:23:49;98546.47;;;1.82;100.00
65897;BME280;52677;50.898;10.854;2023-02-02T03:25:50;98554.38;;;1.92;100.00
65897;BME280;52677;50.898;10.854;2023-02-02T03:27:51;98549.41;;;1.94;100.00
65897;BME280;52677;50.898;10.854;2023-02-02T03:29:52;98556.47;;;2.04;100.00
65897;BME280;52677;50.898;10.854;2023-02-02T03:31:52;98550.22;;;2.12;100.00
65897;BME280;52677;50.898;10.854;2023-02-02T03:33:53;98560.47;;;2.06;100.00
65897;BME280;52677;50.898;10.854;2023-02-02T03:35:54;98555.66;;;2.12;100.00
65897;BME280;52677;50.898;10.854;2023-02-02T03:37:54;98568.69;;;2.23;100.00
65897;BME280;52677;50.898;10.854;2023-02-02T03:39:54;98573.97;;;2.20;100.00
65897;BME280;52677;50.898;10.854;2023-02-02T03:41:55;98569.78;;;2.14;100.00
65897;BME280;52677;50.898;10.854;2023-02-02T03:43:55;98575.91;;;2.11;100.00
65897;BME280;52677;50.898;10.854;2023-02-02T03:46:01;98576.03;;;2.06;100.00
65897;BME280;52677;50.898;10.854;2023-02-02T03:48:03;98574.28;;;2.10;100.00
65897;BME280;52677;50.898;10.854;2023-02-02T03:50:06;98573.81;;;1.99;100.00
65897;BME280;52677;50.898;10.854;2023-02-02T03:52:07;98582.81;;;2.08;100.00
65897;BME280;52677;50.898;10.854;2023-02-02T03:54:07;98589.22;;;2.04;100.00
65897;BME280;52677;50.898;10.854;2023-02-02T03:56:07;98593.72;;;2.08;100.00
65897;BME280;52677;50.898;10.854;2023-02-02T03:58:08;98575.91;;;2.02;100.00
65897;BME280;52677;50.898;10.854;2023-02-02T04:00:09;98584.06;;;2.02;100.00
65897;BME280;52677;50.898;10.854;2023-02-02T04:02:09;98594.22;;;2.10;100.00
65897;BME280;52677;50.898;10.854;2023-02-02T04:04:09;98590.34;;;2.11;100.00
65897;BME280;52677;50.898;10.854;2023-02-02T04:06:10;98598.69;;;2.06;100.00
65897;BME280;52677;50.898;10.854;2023-02-02T04:08:10;98594.03;;;2.07;100.00
65897;BME280;52677;50.898;10.854;2023-02-02T04:10:10;98598.38;;;2.08;100.00
65897;BME280;52677;50.898;10.854;2023-02-02T04:12:11;98602.22;;;2.07;100.00
65897;BME280;52677;50.898;10.854;2023-02-02T04:14:11;98600.13;;;2.04;100.00
65897;BME280;52677;50.898;10.854;2023-02-02T04:16:11;98591.28;;;2.07;100.00
65897;BME280;52677;50.898;10.854;2023-02-02T04:18:12;98600.31;;;2.07;100.00
65897;BME280;52677;50.898;10.854;2023-02-02T04:20:12;98607.84;;;2.10;100.00
65897;BME280;52677;50.898;10.854;2023-02-02T04:22:12;98609.13;;;2.04;100.00
65897;BME280;52677;50.898;10.854;2023-02-02T04:24:13;98614.25;;;2.06;100.00
65897;BME280;52677;50.898;10.854;2023-02-02T04:26:14;98623.56;;;2.13;100.00
65897;BME280;52677;50.898;10.854;2023-02-02T04:28:14;98621.03;;;2.08;100.00
65897;BME280;52677;50.898;10.854;2023-02-02T04:30:14;98610.09;;;2.00;100.00
65897;BME280;52677;50.898;10.854;2023-02-02T04:32:16;98622.75;;;2.04;100.00
65897;BME280;52677;50.898;10.854;2023-02-02T04:34:16;98627.91;;;2.06;100.00
65897;BME280;52677;50.898;10.854;2023-02-02T04:36:16;98641.41;;;2.11;100.00
65897;BME280;52677;50.898;10.854;2023-02-02T04:38:17;98633.38;;;2.14;100.00
65897;BME280;52677;50.898;10.854;2023-02-02T04:40:18;98633.88;;;2.16;100.00
65897;BME280;52677;50.898;10.854;2023-02-02T04:42:18;98632.09;;;2.20;100.00
65897;BME280;52677;50.898;10.854;2023-02-02T04:44:19;98638.03;;;2.22;100.00
65897;BME280;52677;50.898;10.854;2023-02-02T04:46:19;98641.91;;;2.21;100.00
65897;BME280;52677;50.898;10.854;2023-02-02T04:48:19;98639.81;;;2.18;100.00
65897;BME280;52677;50.898;10.854;2023-02-02T04:50:19;98638.69;;;2.19;100.00
65897;BME280;52677;50.898;10.854;2023-02-02T04:52:20;98638.34;;;2.12;100.00
65897;BME280;52677;50.898;10.854;2023-02-02T04:54:20;98650.41;;;2.20;100.00
65897;BME280;52677;50.898;10.854;2023-02-02T04:56:20;98653.94;;;2.20;100.00
65897;BME280;52677;50.898;10.854;2023-02-02T04:58:21;98645.41;;;2.13;100.00
65897;BME280;52677;50.898;10.854;2023-02-02T05:00:22;98649.91;;;2.09;100.00
65897;BME280;52677;50.898;10.854;2023-02-02T05:02:22;98640.28;;;2.12;100.00
65897;BME280;52677;50.898;10.854;2023-02-02T05:04:23;98639.16;;;2.13;100.00
65897;BME280;52677;50.898;10.854;2023-02-02T05:06:23;98637.88;;;2.10;100.00
65897;BME280;52677;50.898;10.854;2023-02-02T05:08:23;98649.13;;;2.17;100.00
65897;BME280;52677;50.898;10.854;2023-02-02T05:10:24;98643.81;;;2.12;100.00
65897;BME280;52677;50.898;10.854;2023-02-02T05:12:24;98638.66;;;2.02;100.00
65897;BME280;52677;50.898;10.854;2023-02-02T05:14:25;98646.03;;;1.93;100.00
65897;BME280;52677;50.898;10.854;2023-02-02T05:16:25;98654.34;;;1.88;100.00
65897;BME280;52677;50.898;10.854;2023-02-02T05:18:25;98660.91;;;1.78;100.00
65897;BME280;52677;50.898;10.854;2023-02-02T05:20:26;98660.56;;;1.71;100.00
65897;BME280;52677;50.898;10.854;2023-02-02T05:22:26;98663.13;;;1.67;100.00
65897;BME280;52677;50.898;10.854;2023-02-02T05:24:26;98667.56;;;1.63;100.00
65897;BME280;52677;50.898;10.854;2023-02-02T05:26:27;98659.72;;;1.62;100.00
65897;BME280;52677;50.898;10.854;2023-02-02T05:28:27;98663.72;;;1.64;100.00
65897;BME280;52677;50.898;10.854;2023-02-02T05:30:28;98673.50;;;1.65;100.00
65897;BME280;52677;50.898;10.854;2023-02-02T05:32:28;98671.09;;;1.64;100.00
65897;BME280;52677;50.898;10.854;2023-02-02T05:34:29;98674.88;;;1.77;100.00
65897;BME280;52677;50.898;10.854;2023-02-02T05:36:29;98675.00;;;1.72;100.00
65897;BME280;52677;50.898;10.854;2023-02-02T05:38:29;98673.22;;;1.67;100.00
65897;BME280;52677;50.898;10.854;2023-02-02T05:40:30;98681.22;;;1.63;100.00
65897;BME280;52677;50.898;10.854;2023-02-02T05:42:30;98684.09;;;1.58;100.00
65897;BME280;52677;50.898;10.854;2023-02-02T05:44:31;98681.81;;;1.52;100.00
65897;BME280;52677;50.898;10.854;2023-02-02T05:46:31;98684.34;;;1.48;100.00
65897;BME280;52677;50.898;10.854;2023-02-02T05:48:31;98676.16;;;1.48;100.00
65897;BME280;52677;50.898;10.854;2023-02-02T05:50:32;98682.94;;;1.51;100.00
65897;BME280;52677;50.898;10.854;2023-02-02T05:52:33;98680.00;;;1.47;100.00
65897;BME280;52677;50.898;10.854;2023-02-02T05:54:34;98679.03;;;1.43;100.00
65897;BME280;52677;50.898;10.854;2023-02-02T05:56:34;98682.69;;;1.38;100.00
65897;BME280;52677;50.898;10.854;2023-02-02T05:58:35;98677.41;;;1.33;100.00
65897;BME280;52677;50.898;10.854;2023-02-02T06:00:35;98680.13;;;1.33;100.00
65897;BME280;52677;50.898;10.854;2023-02-02T06:02:35;98683.31;;;1.35;100.00
65897;BME280;52677;50.898;10.854;2023-02-02T06:04:36;98677.88;;;1.35;100.00
65897;BME280;52677;50.898;10.854;2023-02-02T06:06:36;98684.00;;;1.41;100.00
65897;BME280;52677;50.898;10.854;2023-02-02T06:08:38;98679.47;;;1.36;100.00
65897;BME280;52677;50.898;10.854;2023-02-02T06:10:40;98683.81;;;1.37;100.00
65897;BME280;52677;50.898;10.854;2023-02-02T06:12:40;98686.53;;;1.37;100.00
65897;BME280;52677;50.898;10.854;2023-02-02T06:14:40;98680.22;;;1.51;100.00
65897;BME280;52677;50.898;10.854;2023-02-02T06:16:41;98683.59;;;1.56;100.00
65897;BME280;52677;50.898;10.854;2023-02-02T06:18:41;98684.06;;;1.50;100.00
65897;BME280;52677;50.898;10.854;2023-02-02T06:20:41;98681.19;;;1.55;100.00
65897;BME280;52677;50.898;10.854;2023-02-02T06:22:42;98682.13;;;1.50;100.00
65897;BME280;52677;50.898;10.854;2023-02-02T06:24:42;98691.44;;;1.49;100.00
65897;BME280;52677;50.898;10.854;2023-02-02T06:26:43;98692.53;;;1.48;100.00
65897;BME280;52677;50.898;10.854;2023-02-02T06:28:48;98690.97;;;1.56;100.00
65897;BME280;52677;50.898;10.854;2023-02-02T06:30:49;98695.16;;;1.62;100.00
65897;BME280;52677;50.898;10.854;2023-02-02T06:32:49;98701.91;;;1.64;100.00
65897;BME280;52677;50.898;10.854;2023-02-02T06:34:49;98711.69;;;1.65;100.00
65897;BME280;52677;50.898;10.854;2023-02-02T06:36:50;98714.13;;;1.67;100.00
65897;BME280;52677;50.898;10.854;2023-02-02T06:38:52;98720.41;;;1.67;100.00
65897;BME280;52677;50.898;10.854;2023-02-02T06:40:53;98709.81;;;1.66;100.00
65897;BME280;52677;50.898;10.854;2023-02-02T06:42:58;98715.28;;;1.75;100.00
65897;BME280;52677;50.898;10.854;2023-02-02T06:44:58;98714.00;;;1.81;100.00
65897;BME280;52677;50.898;10.854;2023-02-02T06:46:59;98702.19;;;1.85;100.00
65897;BME280;52677;50.898;10.854;2023-02-02T06:48:59;98710.53;;;1.89;100.00
65897;BME280;52677;50.898;10.854;2023-02-02T06:51:00;98703.31;;;1.93;100.00
65897;BME280;52677;50.898;10.854;2023-02-02T06:53:00;98703.00;;;1.94;100.00
65897;BME280;52677;50.898;10.854;2023-02-02T06:55:00;98701.91;;;2.04;100.00
65897;BME280;52677;50.898;10.854;2023-02-02T06:57:00;98710.59;;;2.15;100.00
65897;BME280;52677;50.898;10.854;2023-02-02T06:59:01;98715.59;;;2.21;100.00
65897;BME280;52677;50.898;10.854;2023-02-02T07:01:06;98712.88;;;2.21;100.00
65897;BME280;52677;50.898;10.854;2023-02-02T07:03:06;98717.38;;;2.17;100.00
65897;BME280;52677;50.898;10.854;2023-02-02T07:05:07;98704.34;;;2.14;100.00
65897;BME280;52677;50.898;10.854;2023-02-02T07:07:07;98710.44;;;2.11;100.00
65897;BME280;52677;50.898;10.854;2023-02-02T07:09:08;98712.72;;;2.18;100.00
65897;BME280;52677;50.898;10.854;2023-02-02T07:11:09;98705.81;;;2.20;100.00
65897;BME280;52677;50.898;10.854;2023-02-02T07:13:10;98714.69;;;2.35;100.00
65897;BME280;52677;50.898;10.854;2023-02-02T07:15:10;98729.00;;;2.40;100.00
65897;BME280;52677;50.898;10.854;2023-02-02T07:17:10;98719.19;;;2.48;100.00
65897;BME280;52677;50.898;10.854;2023-02-02T07:19:11;98726.78;;;2.51;100.00
65897;BME280;52677;50.898;10.854;2023-02-02T07:21:20;98733.03;;;2.51;100.00
65897;BME280;52677;50.898;10.854;2023-02-02T07:23:20;98724.50;;;2.53;100.00
65897;BME280;52677;50.898;10.854;2023-02-02T07:25:21;98733.97;;;2.47;100.00
65897;BME280;52677;50.898;10.854;2023-02-02T07:27:21;98729.16;;;2.44;100.00
65897;BME280;52677;50.898;10.854;2023-02-02T07:29:22;98726.56;;;2.39;100.00
65897;BME280;52677;50.898;10.854;2023-02-02T07:31:24;98721.78;;;2.44;100.00
65897;BME280;52677;50.898;10.854;2023-02-02T07:33:25;98720.81;;;2.49;100.00
65897;BME280;52677;50.898;10.854;2023-02-02T07:35:26;98725.78;;;2.56;100.00
65897;BME280;52677;50.898;10.854;2023-02-02T07:37:26;98735.63;;;2.65;100.00
65897;BME280;52677;50.898;10.854;2023-02-02T07:39:27;98721.47;;;2.63;100.00
65897;BME280;52677;50.898;10.854;2023-02-02T07:41:27;98738.03;;;2.58;100.00
65897;BME280;52677;50.898;10.854;2023-02-02T07:43:27;98749.91;;;2.53;100.00
65897;BME280;52677;50.898;10.854;2023-02-02T07:45:28;98755.47;;;2.40;99.26
65897;BME280;52677;50.898;10.854;2023-02-02T07:47:28;98742.34;;;2.42;99.44
65897;BME280;52677;50.898;10.854;2023-02-02T07:49:28;98758.22;;;2.40;100.00
65897;BME280;52677;50.898;10.854;2023-02-02T07:51:28;98749.38;;;2.34;100.00
65897;BME280;52677;50.898;10.854;2023-02-02T07:53:29;98769.78;;;2.37;98.45
65897;BME280;52677;50.898;10.854;2023-02-02T07:55:29;98797.72;;;2.34;99.46
65897;BME280;52677;50.898;10.854;2023-02-02T07:57:30;98784.22;;;2.29;100.00
65897;BME280;52677;50.898;10.854;2023-02-02T07:59:30;98795.13;;;2.29;100.00
65897;BME280;52677;50.898;10.854;2023-02-02T08:01:30;98791.69;;;2.14;100.00
65897;BME280;52677;50.898;10.854;2023-02-02T08:03:31;98799.41;;;2.12;100.00
65897;BME280;52677;50.898;10.854;2023-02-02T08:05:31;98800.59;;;1.97;100.00
65897;BME280;52677;50.898;10.854;2023-02-02T08:07:34;98802.84;;;1.95;100.00
65897;BME280;52677;50.898;10.854;2023-02-02T08:09:34;98826.94;;;1.93;100.00
65897;BME280;52677;50.898;10.854;2023-02-02T08:11:36;98833.78;;;1.82;100.00
65897;BME280;52677;50.898;10.854;2023-02-02T08:13:37;98840.78;;;1.75;100.00
65897;BME280;52677;50.898;10.854;2023-02-02T08:15:37;98846.28;;;1.61;100.00
65897;BME280;52677;50.898;10.854;2023-02-02T08:17:38;98822.00;;;1.51;100.00
65897;BME280;52677;50.898;10.854;2023-02-02T08:19:38;98822.00;;;1.51;100.00
65897;BME280;52677;50.898;10.854;2023-02-02T08:21:38;98831.47;;;1.53;100.00
65897;BME280;52677;50.898;10.854;2023-02-02T08:23:41;98851.00;;;1.47;100.00
65897;BME280;52677;50.898;10.854;2023-02-02T08:25:41;98844.75;;;1.46;100.00
65897;BME280;52677;50.898;10.854;2023-02-02T08:27:42;98865.78;;;1.32;100.00
65897;BME280;52677;50.898;10.854;2023-02-02T08:29:42;98871.47;;;1.22;100.00
65897;BME280;52677;50.898;10.854;2023-02-02T08:31:43;98875.94;;;1.18;100.00
65897;BME280;52677;50.898;10.854;2023-02-02T08:33:44;98872.19;;;1.13;100.00
65897;BME280;52677;50.898;10.854;2023-02-02T08:35:44;98871.38;;;1.13;100.00
65897;BME280;52677;50.898;10.854;2023-02-02T08:37:47;98878.88;;;1.07;100.00
65897;BME280;52677;50.898;10.854;2023-02-02T08:39:48;98874.03;;;1.04;100.00
65897;BME280;52677;50.898;10.854;2023-02-02T08:41:53;98885.94;;;1.08;100.00
65897;BME280;52677;50.898;10.854;2023-02-02T08:43:54;98877.25;;;1.06;100.00
65897;BME280;52677;50.898;10.854;2023-02-02T08:45:54;98877.78;;;1.08;100.00
65897;BME280;52677;50.898;10.854;2023-02-02T08:47:54;98885.66;;;0.96;100.00
65897;BME280;52677;50.898;10.854;2023-02-02T08:49:54;98894.53;;;1.02;100.00
65897;BME280;52677;50.898;10.854;2023-02-02T08:51:55;98887.06;;;0.94;100.00
65897;BME280;52677;50.898;10.854;2023-02-02T08:53:55;98885.78;;;0.91;100.00
65897;BME280;52677;50.898;10.854;2023-02-02T08:57:59;98906.88;;;0.86;100.00
65897;BME280;52677;50.898;10.854;2023-02-02T08:59:59;98890.22;;;0.87;100.00
65897;BME280;52677;50.898;10.854;2023-02-02T09:01:59;98880.44;;;0.86;100.00
65897;BME280;52677;50.898;10.854;2023-02-02T09:04:07;98885.88;;;0.86;100.00
65897;BME280;52677;50.898;10.854;2023-02-02T09:06:15;98888.38;;;0.82;100.00
65897;BME280;52677;50.898;10.854;2023-02-02T09:08:16;98889.72;;;0.85;100.00
65897;BME280;52677;50.898;10.854;2023-02-02T09:10:16;98892.44;;;0.85;100.00
65897;BME280;52677;50.898;10.854;2023-02-02T09:12:16;98897.06;;;0.84;100.00
65897;BME280;52677;50.898;10.854;2023-02-02T09:14:17;98894.75;;;0.78;100.00
65897;BME280;52677;50.898;10.854;2023-02-02T09:16:18;98906.53;;;0.73;100.00
65897;BME280;52677;50.898;10.854;2023-02-02T09:18:18;98901.63;;;0.62;100.00
65897;BME280;52677;50.898;10.854;2023-02-02T09:20:19;98907.56;;;0.64;100.00
65897;BME280;52677;50.898;10.854;2023-02-02T09:22:19;98907.78;;;0.67;100.00
65897;BME280;52677;50.898;10.854;2023-02-02T09:24:20;98912.00;;;0.60;100.00
65897;BME280;52677;50.898;10.854;2023-02-02T09:26:25;98920.19;;;0.60;100.00
65897;BME280;52677;50.898;10.854;2023-02-02T09:28:26;98923.47;;;0.56;100.00
65897;BME280;52677;50.898;10.854;2023-02-02T09:30:26;98921.28;;;0.59;100.00
65897;BME280;52677;50.898;10.854;2023-02-02T09:32:26;98917.88;;;0.67;100.00
65897;BME280;52677;50.898;10.854;2023-02-02T09:34:27;98924.69;;;0.64;100.00
65897;BME280;52677;50.898;10.854;2023-02-02T09:36:27;98934.22;;;0.67;100.00
65897;BME280;52677;50.898;10.854;2023-02-02T09:38:27;98927.34;;;0.69;100.00
65897;BME280;52677;50.898;10.854;2023-02-02T09:40:30;98941.75;;;0.70;100.00
65897;BME280;52677;50.898;10.854;2023-02-02T09:42:46;98941.84;;;0.65;100.00
65897;BME280;52677;50.898;10.854;2023-02-02T09:44:56;98944.47;;;0.70;100.00
65897;BME280;52677;50.898;10.854;2023-02-02T09:47:18;98948.22;;;0.74;100.00
65897;BME280;52677;50.898;10.854;2023-02-02T09:49:24;98944.97;;;0.72;100.00
65897;BME280;52677;50.898;10.854;2023-02-02T09:51:38;98951.25;;;0.72;100.00
65897;BME280;52677;50.898;10.854;2023-02-02T09:55:51;98961.03;;;0.73;100.00
65897;BME280;52677;50.898;10.854;2023-02-02T09:58:13;98950.13;;;0.73;100.00
65897;BME280;52677;50.898;10.854;2023-02-02T10:00:26;98960.75;;;0.75;100.00
65897;BME280;52677;50.898;10.854;2023-02-02T10:02:43;98963.47;;;0.75;100.00
65897;BME280;52677;50.898;10.854;2023-02-02T10:04:50;98955.00;;;0.76;100.00
65897;BME280;52677;50.898;10.854;2023-02-02T10:06:56;98964.28;;;0.75;100.00
65897;BME280;52677;50.898;10.854;2023-02-02T10:09:07;98956.38;;;0.74;100.00
65897;BME280;52677;50.898;10.854;2023-02-02T10:11:35;98968.59;;;0.76;100.00
65897;BME280;52677;50.898;10.854;2023-02-02T10:13:37;98967.28;;;0.74;100.00
65897;BME280;52677;50.898;10.854;2023-02-02T10:16:11;98968.38;;;0.73;100.00
65897;BME280;52677;50.898;10.854;2023-02-02T10:18:20;98975.25;;;0.70;100.00
65897;BME280;52677;50.898;10.854;2023-02-02T10:22:49;98972.53;;;0.70;100.00
65897;BME280;52677;50.898;10.854;2023-02-02T10:24:50;98970.09;;;0.69;100.00
65897;BME280;52677;50.898;10.854;2023-02-02T10:26:56;98970.59;;;0.71;100.00
65897;BME280;52677;50.898;10.854;2023-02-02T10:29:15;98966.28;;;0.70;100.00
65897;BME280;52677;50.898;10.854;2023-02-02T10:31:41;98973.84;;;0.73;100.00
65897;BME280;52677;50.898;10.854;2023-02-02T10:33:54;98962.44;;;0.71;100.00
65897;BME280;52677;50.898;10.854;2023-02-02T10:36:08;98972.72;;;0.74;100.00
65897;BME280;52677;50.898;10.854;2023-02-02T10:38:32;98973.03;;;0.72;100.00
65897;BME280;52677;50.898;10.854;2023-02-02T10:45:27;98965.66;;;0.73;100.00
65897;BME280;52677;50.898;10.854;2023-02-02T10:47:32;98971.91;;;0.73;100.00
65897;BME280;52677;50.898;10.854;2023-02-02T10:49:35;98972.63;;;0.79;100.00
65897;BME280;52677;50.898;10.854;2023-02-02T10:51:36;98968.59;;;0.76;100.00
65897;BME280;52677;50.898;10.854;2023-02-02T10:53:37;98971.03;;;0.78;100.00
65897;BME280;52677;50.898;10.854;2023-02-02T10:56:07;98975.66;;;0.77;100.00
65897;BME280;52677;50.898;10.854;2023-02-02T11:00:21;98968.22;;;0.83;100.00
65897;BME280;52677;50.898;10.854;2023-02-02T11:02:23;98972.63;;;0.79;100.00
65897;BME280;52677;50.898;10.854;2023-02-02T11:04:24;98973.13;;;0.81;100.00
65897;BME280;52677;50.898;10.854;2023-02-02T11:06:42;98974.47;;;0.83;100.00
65897;BME280;52677;50.898;10.854;2023-02-02T11:08:50;98978.00;;;0.84;100.00
65897;BME280;52677;50.898;10.854;2023-02-02T11:11:18;98981.84;;;0.83;100.00
65897;BME280;52677;50.898;10.854;2023-02-02T11:13:29;98980.72;;;0.84;100.00
65897;BME280;52677;50.898;10.854;2023-02-02T11:15:30;98975.28;;;0.84;100.00
65897;BME280;52677;50.898;10.854;2023-02-02T11:17:31;98988.91;;;0.84;100.00
65897;BME280;52677;50.898;10.854;2023-02-02T11:19:34;98986.38;;;0.88;100.00